Hubbard, Minnesota
Current Conditions -  °F | °C
As of 3:53 AM on Monday 20 Oct 2014 (Local Time) from KPKD Reporting Station
Clear Clear  
Wind Chill: 36°   Ceiling: Unl
Heat Index: 40°   Visibility: 10mi
Dew Point: 37°   Wind: 6mph
Humidity: 89%   Direction: 330°NNW
Pressure: 29.93"   Gusts: NA
Location:  46.9966°N, 95.0029°W
Report Text: KPKD 200853Z AUTO 33005KT 10SM CLR 04/03 A2993 RMK AO2 SLP142 T00440028 53010 TSNO
Loading
Personal Weather Stations






























Interactive Weather Map
Tropical Storm Tracking
New forecast layout! Learn more

10-Day Weather Forecast

Advertisements
Track Severe Weather on mobile